createdAt,value
2023-05-05T00:00:30.822Z,10.00
2023-05-05T00:03:14.747Z,9.90
2023-05-05T00:05:43.375Z,9.80
2023-05-05T00:08:12.517Z,9.80
2023-05-05T00:10:42.122Z,9.80
2023-05-05T00:13:10.826Z,9.80
2023-05-05T00:15:40.082Z,9.80
2023-05-05T00:18:09.142Z,9.80
2023-05-05T00:20:37.854Z,9.80
2023-05-05T00:23:06.398Z,9.90
2023-05-05T00:25:35.062Z,9.90
2023-05-05T00:28:03.787Z,9.90
2023-05-05T00:30:32.981Z,9.90
2023-05-05T00:33:01.836Z,9.96
2023-05-05T00:35:30.837Z,10.00
2023-05-05T00:37:59.509Z,10.10
2023-05-05T00:40:28.347Z,10.10
2023-05-05T00:42:59.006Z,10.20
2023-05-05T00:45:28.365Z,10.20
2023-05-05T00:47:59.227Z,10.30
2023-05-05T00:50:29.641Z,10.30
2023-05-05T00:53:00.977Z,10.34
2023-05-05T00:55:30.291Z,10.40
2023-05-05T00:57:59.783Z,10.40
2023-05-05T01:00:29.536Z,10.40
2023-05-05T01:02:58.978Z,10.40
2023-05-05T01:05:30.559Z,10.40
2023-05-05T01:08:13.768Z,10.40
2023-05-05T01:10:45.871Z,10.40
2023-05-05T01:13:27.945Z,10.40
2023-05-05T01:16:01.379Z,10.40
2023-05-05T01:18:36.548Z,10.40
2023-05-05T01:21:09.558Z,10.40
2023-05-05T01:24:06.804Z,10.50
2023-05-05T01:26:59.588Z,10.50
2023-05-05T01:29:46.405Z,10.50
2023-05-05T01:32:16.528Z,10.40
2023-05-05T01:34:51.623Z,10.40
2023-05-05T01:37:22.337Z,10.40
2023-05-05T01:39:53.008Z,10.40
2023-05-05T01:42:22.536Z,10.40
2023-05-05T01:44:52.080Z,10.40
2023-05-05T01:47:22.222Z,10.40
2023-05-05T01:49:52.167Z,10.40
2023-05-05T01:52:21.721Z,10.40
2023-05-05T01:54:50.648Z,10.40
2023-05-05T01:57:20.601Z,10.40
2023-05-05T01:59:51.251Z,10.40
2023-05-05T02:02:21.172Z,10.40
2023-05-05T02:04:51.389Z,10.38
2023-05-05T02:07:20.605Z,10.30
2023-05-05T02:09:49.910Z,10.30
2023-05-05T02:12:20.714Z,10.30
2023-05-05T02:14:51.031Z,10.20
2023-05-05T02:17:21.698Z,10.14
2023-05-05T02:19:52.334Z,10.10
2023-05-05T02:22:20.865Z,10.00
2023-05-05T02:24:49.455Z,9.90
2023-05-05T02:27:21.682Z,9.90
2023-05-05T02:29:52.755Z,9.80
2023-05-05T02:32:24.808Z,9.72
2023-05-05T02:34:55.479Z,9.70
2023-05-05T02:37:27.347Z,9.60
2023-05-05T02:40:00.060Z,9.58
2023-05-05T02:42:35.518Z,9.50
2023-05-05T02:45:09.991Z,9.50
2023-05-05T02:47:40.776Z,9.46
2023-05-05T02:50:11.341Z,9.40
2023-05-05T02:52:43.198Z,9.40
2023-05-05T02:55:12.488Z,9.40
2023-05-05T02:57:47.422Z,9.40
2023-05-05T03:00:30.687Z,9.40
2023-05-05T03:03:05.517Z,9.40
2023-05-05T03:05:40.626Z,9.40
2023-05-05T03:08:14.091Z,9.40
2023-05-05T03:10:46.806Z,9.40
2023-05-05T03:13:17.393Z,9.40
2023-05-05T03:15:49.678Z,9.40
2023-05-05T03:18:21.411Z,9.40
2023-05-05T03:20:54.902Z,9.40
2023-05-05T03:23:23.783Z,9.30
2023-05-05T03:25:56.654Z,9.30
2023-05-05T03:28:36.964Z,9.20
2023-05-05T03:31:11.646Z,9.20
2023-05-05T03:33:40.515Z,9.20
2023-05-05T03:36:10.352Z,9.20
2023-05-05T03:38:39.512Z,9.20
2023-05-05T03:41:08.295Z,9.20
2023-05-05T03:43:38.823Z,9.20
2023-05-05T03:46:08.035Z,9.20
2023-05-05T03:48:37.060Z,9.16
2023-05-05T03:51:05.744Z,9.10
2023-05-05T03:53:35.142Z,9.10
2023-05-05T03:56:05.444Z,9.20
2023-05-05T03:58:34.126Z,9.20
2023-05-05T04:01:03.436Z,9.20
2023-05-05T04:03:32.290Z,9.20
2023-05-05T04:06:01.234Z,9.30
2023-05-05T04:08:30.356Z,9.30
2023-05-05T04:10:59.089Z,9.40
2023-05-05T04:13:27.757Z,9.40
2023-05-05T04:15:56.528Z,9.40
2023-05-05T04:18:25.495Z,9.40
2023-05-05T04:20:54.293Z,9.36
2023-05-05T04:23:23.601Z,9.40
2023-05-05T04:25:52.829Z,9.40
2023-05-05T04:28:22.187Z,9.40
2023-05-05T04:30:51.380Z,9.42
2023-05-05T04:33:20.117Z,9.50
2023-05-05T04:35:49.254Z,9.50
2023-05-05T04:38:19.039Z,9.50
2023-05-05T04:40:48.573Z,9.60
2023-05-05T04:43:17.347Z,9.74
2023-05-05T04:45:54.034Z,10.00
2023-05-05T04:48:23.995Z,10.10
2023-05-05T04:50:53.304Z,10.20
2023-05-05T04:53:22.098Z,10.30
2023-05-05T04:55:50.727Z,10.40
2023-05-05T04:58:19.394Z,10.50
2023-05-05T05:00:48.113Z,10.70
2023-05-05T05:03:16.767Z,10.90
2023-05-05T05:05:45.482Z,11.22
2023-05-05T05:08:15.454Z,11.76
2023-05-05T05:10:44.453Z,12.56
2023-05-05T05:13:13.411Z,13.00
2023-05-05T05:15:42.539Z,13.00
2023-05-05T05:18:11.283Z,12.84
2023-05-05T05:20:40.125Z,12.70
2023-05-05T05:23:09.103Z,12.60
2023-05-05T05:25:40.502Z,12.60
2023-05-05T05:28:10.655Z,12.60
2023-05-05T05:30:52.630Z,12.76
2023-05-05T05:33:21.687Z,12.90
2023-05-05T05:35:50.709Z,13.10
2023-05-05T05:38:21.100Z,13.40
2023-05-05T05:40:51.158Z,13.50
2023-05-05T05:43:20.036Z,13.60
2023-05-05T05:45:48.684Z,13.60
2023-05-05T05:48:17.760Z,13.70
2023-05-05T05:50:46.653Z,13.80
2023-05-05T05:53:15.739Z,13.90
2023-05-05T05:55:46.456Z,14.00
2023-05-05T05:58:16.639Z,14.00
2023-05-05T06:00:45.480Z,14.00
2023-05-05T06:03:14.917Z,13.90
2023-05-05T06:05:44.611Z,13.80
2023-05-05T06:08:13.451Z,13.80
2023-05-05T06:10:47.649Z,13.80
2023-05-05T06:13:18.330Z,13.90
2023-05-05T06:15:49.397Z,14.00
2023-05-05T06:18:18.439Z,14.12
2023-05-05T06:20:49.797Z,14.26
2023-05-05T06:23:18.620Z,14.30
2023-05-05T06:25:51.396Z,14.40
2023-05-05T06:28:20.089Z,14.60
2023-05-05T06:30:48.847Z,14.70
2023-05-05T06:33:17.409Z,14.80
2023-05-05T06:35:47.249Z,14.90
2023-05-05T06:38:15.930Z,15.00
2023-05-05T06:40:44.751Z,15.20
2023-05-05T06:43:14.098Z,15.40
2023-05-05T06:45:46.820Z,15.60
2023-05-05T06:48:15.378Z,15.60
2023-05-05T06:50:44.167Z,15.80
2023-05-05T06:53:12.868Z,15.80
2023-05-05T06:55:45.069Z,15.90
2023-05-05T06:58:14.068Z,16.10
2023-05-05T07:00:42.919Z,16.20
2023-05-05T07:03:11.739Z,16.30
2023-05-05T07:05:41.427Z,16.34
2023-05-05T07:08:10.862Z,16.40
2023-05-05T07:10:39.691Z,16.40
2023-05-05T07:13:08.412Z,16.50
2023-05-05T07:15:37.167Z,16.60
2023-05-05T07:18:06.171Z,16.70
2023-05-05T07:20:37.785Z,16.80
2023-05-05T07:23:06.419Z,16.88
2023-05-05T07:25:35.111Z,16.94
2023-05-05T07:28:04.242Z,17.00
2023-05-05T07:30:32.964Z,17.16
2023-05-05T07:33:01.704Z,17.20
2023-05-05T07:35:30.433Z,17.20
2023-05-05T07:37:59.044Z,17.30
2023-05-05T07:40:27.717Z,17.30
2023-05-05T07:42:56.382Z,17.40
2023-05-05T07:45:25.599Z,17.58
2023-05-05T07:47:54.263Z,17.80
2023-05-05T07:50:22.877Z,17.90
2023-05-05T07:52:56.342Z,18.04
2023-05-05T07:55:30.949Z,18.26
2023-05-05T07:57:59.583Z,18.40
2023-05-05T08:00:28.286Z,18.44
2023-05-05T08:02:56.905Z,18.68
2023-05-05T08:05:25.579Z,18.70
2023-05-05T08:07:54.271Z,18.90
2023-05-05T08:10:23.145Z,19.10
2023-05-05T08:12:52.025Z,19.20
2023-05-05T08:15:21.069Z,19.40
2023-05-05T08:17:51.120Z,19.40
2023-05-05T08:20:20.965Z,19.50
2023-05-05T08:22:51.188Z,19.60
2023-05-05T08:25:19.979Z,19.72
2023-05-05T08:27:48.668Z,19.82
2023-05-05T08:30:20.346Z,20.06
2023-05-05T08:32:49.303Z,20.20
2023-05-05T08:35:18.071Z,20.24
2023-05-05T08:37:46.958Z,20.40
2023-05-05T08:40:15.796Z,20.50
2023-05-05T08:42:45.297Z,20.60
2023-05-05T08:45:13.893Z,20.90
2023-05-05T08:47:43.296Z,21.20
2023-05-05T08:50:12.886Z,21.30
2023-05-05T08:52:43.816Z,21.50
2023-05-05T08:55:21.214Z,21.60
2023-05-05T08:57:53.208Z,21.90
2023-05-05T09:00:22.834Z,22.20
2023-05-05T09:02:54.617Z,22.58
2023-05-05T09:05:23.346Z,22.90
2023-05-05T09:07:52.413Z,23.34
2023-05-05T09:10:21.130Z,23.80
2023-05-05T09:12:50.728Z,23.90
2023-05-05T09:15:19.608Z,23.90
2023-05-05T09:17:48.572Z,24.20
2023-05-05T09:20:17.590Z,24.32
2023-05-05T09:22:47.392Z,24.52
2023-05-05T09:25:17.102Z,24.90
2023-05-05T09:27:48.225Z,25.22
2023-05-05T09:30:18.534Z,25.70
2023-05-05T09:32:48.992Z,25.80
2023-05-05T09:35:18.704Z,25.80
2023-05-05T09:37:47.908Z,26.12
2023-05-05T09:40:18.231Z,26.36
2023-05-05T09:42:47.240Z,26.34
2023-05-05T09:45:28.121Z,26.40
2023-05-05T09:48:00.371Z,26.54
2023-05-05T09:50:32.134Z,26.70
2023-05-05T09:53:02.287Z,26.70
2023-05-05T09:55:31.351Z,26.70
2023-05-05T09:58:15.110Z,26.80
2023-05-05T10:00:43.805Z,26.80
2023-05-05T10:03:12.418Z,27.16
2023-05-05T10:05:49.896Z,27.70
2023-05-05T10:08:19.294Z,27.98
2023-05-05T10:10:51.549Z,28.34
2023-05-05T10:13:21.718Z,28.82
2023-05-05T10:15:51.651Z,29.36
2023-05-05T10:18:22.162Z,29.94
2023-05-05T10:20:57.494Z,30.56
2023-05-05T10:23:38.053Z,30.90
2023-05-05T10:26:08.264Z,31.14
2023-05-05T10:28:44.246Z,31.10
2023-05-05T10:31:24.977Z,31.66
2023-05-05T10:34:00.542Z,32.20
2023-05-05T10:36:29.891Z,32.80
2023-05-05T10:38:59.935Z,33.26
2023-05-05T10:41:28.806Z,33.46
2023-05-05T10:43:58.207Z,33.50
2023-05-05T10:46:27.916Z,33.80
2023-05-05T10:49:02.839Z,34.24
2023-05-05T10:51:41.367Z,34.70
2023-05-05T10:54:17.053Z,34.50
2023-05-05T10:56:46.965Z,34.60
2023-05-05T10:59:43.231Z,34.40
2023-05-05T11:02:22.965Z,34.50
2023-05-05T11:05:17.147Z,34.92
2023-05-05T11:07:46.704Z,35.60
2023-05-05T11:10:16.666Z,36.00
2023-05-05T11:13:21.539Z,36.26
2023-05-05T11:15:51.614Z,36.10
2023-05-05T11:18:35.236Z,36.30
2023-05-05T11:21:08.304Z,36.14
2023-05-05T11:23:36.914Z,35.90
2023-05-05T11:26:05.887Z,35.94
2023-05-05T11:28:34.517Z,35.78
2023-05-05T11:31:19.510Z,36.32
2023-05-05T11:33:48.506Z,36.96
2023-05-05T11:36:17.957Z,37.28
2023-05-05T11:38:56.733Z,37.28
2023-05-05T11:41:35.609Z,35.98
2023-05-05T11:44:10.996Z,35.70
2023-05-05T11:46:40.636Z,35.58
2023-05-05T11:49:09.421Z,35.80
2023-05-05T11:51:38.090Z,36.18
2023-05-05T11:54:06.772Z,36.44
2023-05-05T11:56:35.543Z,36.40
2023-05-05T11:59:09.463Z,36.38
2023-05-05T12:01:41.168Z,35.54
2023-05-05T12:04:12.316Z,35.08
2023-05-05T12:06:41.563Z,34.80
2023-05-05T12:09:16.095Z,35.28
2023-05-05T12:11:50.131Z,35.00
2023-05-05T12:14:19.132Z,34.10
2023-05-05T12:16:55.933Z,34.02
2023-05-05T12:19:29.248Z,34.00
2023-05-05T12:21:57.845Z,34.30
2023-05-05T12:24:26.468Z,33.80
2023-05-05T12:26:55.059Z,33.56
2023-05-05T12:29:26.342Z,33.50
2023-05-05T12:31:55.277Z,34.06
2023-05-05T12:34:24.050Z,34.76
2023-05-05T12:36:53.175Z,35.50
2023-05-05T12:39:21.922Z,36.26
2023-05-05T12:41:50.610Z,36.90
2023-05-05T12:44:19.942Z,37.14
2023-05-05T12:46:49.167Z,37.20
2023-05-05T12:49:17.747Z,36.90
2023-05-05T12:51:55.079Z,36.50
2023-05-05T12:54:24.596Z,36.38
2023-05-05T12:56:53.254Z,36.16
2023-05-05T12:59:31.293Z,36.16
2023-05-05T13:02:00.972Z,36.78
2023-05-05T13:04:30.043Z,37.36
2023-05-05T13:07:12.539Z,38.08
2023-05-05T13:09:41.540Z,38.66
2023-05-05T13:12:11.911Z,38.72
2023-05-05T13:14:40.884Z,38.30
2023-05-05T13:17:09.639Z,37.88
2023-05-05T13:19:42.253Z,37.20
2023-05-05T13:22:11.049Z,36.76
2023-05-05T13:24:50.859Z,36.16
2023-05-05T13:27:21.016Z,36.40
2023-05-05T13:29:49.706Z,36.04
2023-05-05T13:32:18.322Z,35.38
2023-05-05T13:34:47.017Z,35.68
2023-05-05T13:37:15.742Z,35.90
2023-05-05T13:39:44.746Z,36.16
2023-05-05T13:42:13.660Z,36.90
2023-05-05T13:44:42.322Z,37.14
2023-05-05T13:47:11.315Z,37.62
2023-05-05T13:49:39.981Z,37.88
2023-05-05T13:52:08.857Z,37.08
2023-05-05T13:54:37.699Z,36.60
2023-05-05T13:57:07.669Z,35.24
2023-05-05T13:59:36.321Z,34.04
2023-05-05T14:02:05.792Z,33.62
2023-05-05T14:04:34.735Z,32.84
2023-05-05T14:07:04.310Z,32.20
2023-05-05T14:09:32.857Z,32.36
2023-05-05T14:12:02.994Z,32.70
2023-05-05T14:14:31.678Z,32.90
2023-05-05T14:17:00.309Z,32.70
2023-05-05T14:19:28.942Z,32.78
2023-05-05T14:21:57.874Z,32.90
2023-05-05T14:24:26.787Z,33.12
2023-05-05T14:26:55.470Z,33.12
2023-05-05T14:29:24.211Z,33.40
2023-05-05T14:31:53.507Z,33.64
2023-05-05T14:34:22.160Z,34.14
2023-05-05T14:36:50.852Z,34.80
2023-05-05T14:39:19.620Z,34.26
2023-05-05T14:41:48.270Z,33.36
2023-05-05T14:44:16.931Z,32.80
2023-05-05T14:46:46.342Z,32.60
2023-05-05T14:49:15.517Z,32.44
2023-05-05T14:51:44.236Z,32.30
2023-05-05T14:54:26.859Z,31.90
2023-05-05T14:56:56.266Z,31.32
2023-05-05T14:59:24.974Z,30.28
2023-05-05T15:01:53.831Z,29.36
2023-05-05T15:04:22.359Z,29.40
2023-05-05T15:06:51.102Z,29.80
2023-05-05T15:09:19.971Z,30.10
2023-05-05T15:11:48.761Z,30.50
2023-05-05T15:14:17.938Z,31.16
2023-05-05T15:16:46.809Z,31.80
2023-05-05T15:19:15.471Z,31.80
2023-05-05T15:21:44.045Z,32.06
2023-05-05T15:24:12.658Z,32.40
2023-05-05T15:26:41.254Z,32.50
2023-05-05T15:29:09.897Z,32.00
2023-05-05T15:31:38.600Z,31.40
2023-05-05T15:34:07.388Z,30.72
2023-05-05T15:36:36.025Z,30.40
2023-05-05T15:39:04.779Z,29.70
2023-05-05T15:41:34.422Z,29.04
2023-05-05T15:44:04.328Z,28.52
2023-05-05T15:46:33.374Z,28.20
2023-05-05T15:49:02.082Z,27.60
2023-05-05T15:51:31.683Z,27.18
2023-05-05T15:54:00.248Z,26.98
2023-05-05T15:56:28.993Z,27.42
2023-05-05T15:58:57.472Z,28.00
2023-05-05T16:01:26.109Z,28.52
2023-05-05T16:03:54.771Z,29.18
2023-05-05T16:06:23.369Z,29.74
2023-05-05T16:08:51.906Z,29.42
2023-05-05T16:11:22.398Z,28.54
2023-05-05T16:13:51.159Z,28.12
2023-05-05T16:16:19.951Z,28.00
2023-05-05T16:18:48.672Z,28.10
2023-05-05T16:21:17.379Z,27.88
2023-05-05T16:23:46.043Z,26.94
2023-05-05T16:26:14.646Z,26.06
2023-05-05T16:28:43.460Z,25.20
2023-05-05T16:31:12.966Z,24.60
2023-05-05T16:33:43.127Z,24.30
2023-05-05T16:36:12.584Z,24.10
2023-05-05T16:38:41.374Z,23.70
2023-05-05T16:41:11.187Z,23.40
2023-05-05T16:43:39.867Z,23.20
2023-05-05T16:46:08.398Z,23.00
2023-05-05T16:48:37.028Z,22.90
2023-05-05T16:51:05.704Z,22.82
2023-05-05T16:53:34.188Z,22.90
2023-05-05T16:56:02.822Z,22.70
2023-05-05T16:58:31.473Z,22.50
2023-05-05T17:01:01.480Z,22.30
2023-05-05T17:03:30.167Z,22.10
2023-05-05T17:05:58.747Z,21.86
2023-05-05T17:08:27.606Z,21.56
2023-05-05T17:10:56.158Z,21.28
2023-05-05T17:13:24.653Z,21.00
2023-05-05T17:15:53.470Z,20.80
2023-05-05T17:18:25.198Z,20.60
2023-05-05T17:20:53.960Z,20.40
2023-05-05T17:23:22.697Z,20.20
2023-05-05T17:25:52.073Z,20.10
2023-05-05T17:28:20.800Z,19.90
2023-05-05T17:30:49.472Z,19.80
2023-05-05T17:33:20.840Z,19.60
2023-05-05T17:35:49.632Z,19.50
2023-05-05T17:38:18.153Z,19.40
2023-05-05T17:40:46.893Z,19.28
2023-05-05T17:43:15.719Z,19.20
2023-05-05T17:45:44.473Z,19.10
2023-05-05T17:48:13.024Z,19.00
2023-05-05T17:50:43.439Z,19.00
2023-05-05T17:53:12.305Z,18.90
2023-05-05T17:55:44.118Z,18.80
2023-05-05T17:58:12.700Z,18.70
2023-05-05T18:00:41.358Z,18.70
2023-05-05T18:03:10.119Z,18.60
2023-05-05T18:05:38.796Z,18.50
2023-05-05T18:08:07.683Z,18.40
2023-05-05T18:10:36.325Z,18.26
2023-05-05T18:13:05.036Z,18.10
2023-05-05T18:15:33.817Z,18.00
2023-05-05T18:18:02.423Z,17.90
2023-05-05T18:20:30.977Z,17.80
2023-05-05T18:22:59.538Z,17.76
2023-05-05T18:25:28.765Z,17.68
2023-05-05T18:27:57.931Z,17.54
2023-05-05T18:30:26.775Z,17.46
2023-05-05T18:32:56.152Z,17.40
2023-05-05T18:35:24.743Z,17.30
2023-05-05T18:37:54.516Z,17.20
2023-05-05T18:40:23.256Z,17.10
2023-05-05T18:42:52.161Z,17.00
2023-05-05T18:45:21.121Z,16.90
2023-05-05T18:47:49.737Z,16.90
2023-05-05T18:50:18.799Z,16.80
2023-05-05T18:52:47.424Z,16.70
2023-05-05T18:55:16.329Z,16.70
2023-05-05T18:57:45.169Z,16.60
2023-05-05T19:00:15.179Z,16.50
2023-05-05T19:02:43.817Z,16.50
2023-05-05T19:05:12.711Z,16.40
2023-05-05T19:07:41.526Z,16.30
2023-05-05T19:10:11.708Z,16.30
2023-05-05T19:12:40.548Z,16.20
2023-05-05T19:15:10.979Z,16.10
2023-05-05T19:17:40.131Z,16.00
2023-05-05T19:20:10.654Z,16.00
2023-05-05T19:22:39.574Z,15.90
2023-05-05T19:25:09.583Z,15.80
2023-05-05T19:27:38.800Z,15.80
2023-05-05T19:30:09.710Z,15.70
2023-05-05T19:32:38.379Z,15.70
2023-05-05T19:35:10.023Z,15.64
2023-05-05T19:37:39.606Z,15.60
2023-05-05T19:40:10.416Z,15.50
2023-05-05T19:42:39.301Z,15.50
2023-05-05T19:45:09.474Z,15.40
2023-05-05T19:47:38.251Z,15.30
2023-05-05T19:50:08.411Z,15.26
2023-05-05T19:52:37.872Z,15.20
2023-05-05T19:55:09.822Z,15.10
2023-05-05T19:57:41.893Z,15.00
2023-05-05T20:00:12.648Z,14.98
2023-05-05T20:02:42.113Z,14.90
2023-05-05T20:05:13.371Z,14.88
2023-05-05T20:07:42.449Z,14.80
2023-05-05T20:10:12.951Z,14.80
2023-05-05T20:12:47.141Z,14.70
2023-05-05T20:15:18.086Z,14.70
2023-05-05T20:17:47.804Z,14.62
2023-05-05T20:20:18.174Z,14.60
2023-05-05T20:22:47.254Z,14.58
2023-05-05T20:25:16.105Z,14.50
2023-05-05T20:27:45.269Z,14.50
2023-05-05T20:30:14.536Z,14.42
2023-05-05T20:32:43.170Z,14.40
2023-05-05T20:35:12.309Z,14.30
2023-05-05T20:37:41.052Z,14.30
2023-05-05T20:40:12.038Z,14.20
2023-05-05T20:42:40.683Z,14.20
2023-05-05T20:45:11.130Z,14.10
2023-05-05T20:47:39.707Z,14.02
2023-05-05T20:50:10.860Z,14.00
2023-05-05T20:52:39.625Z,13.90
2023-05-05T20:55:09.197Z,13.90
2023-05-05T20:57:37.812Z,13.80
2023-05-05T21:00:09.747Z,13.70
2023-05-05T21:02:38.797Z,13.70
2023-05-05T21:05:08.922Z,13.60
2023-05-05T21:07:37.588Z,13.60
2023-05-05T21:10:08.973Z,13.50
2023-05-05T21:12:40.272Z,13.50
2023-05-05T21:15:11.185Z,13.40
2023-05-05T21:17:40.212Z,13.40
2023-05-05T21:20:11.398Z,13.40
2023-05-05T21:22:40.618Z,13.30
2023-05-05T21:25:13.496Z,13.30
2023-05-05T21:27:42.404Z,13.20
2023-05-05T21:30:12.388Z,13.20
2023-05-05T21:32:41.986Z,13.10
2023-05-05T21:35:10.982Z,13.10
2023-05-05T21:37:39.805Z,13.04
2023-05-05T21:40:13.115Z,13.00
2023-05-05T21:42:42.287Z,12.96
2023-05-05T21:45:12.438Z,12.90
2023-05-05T21:47:41.390Z,12.82
2023-05-05T21:50:12.493Z,12.80
2023-05-05T21:52:41.197Z,12.78
2023-05-05T21:55:10.618Z,12.70
2023-05-05T21:57:39.381Z,12.70
2023-05-05T22:00:16.054Z,12.60
2023-05-05T22:02:45.230Z,12.60
2023-05-05T22:05:14.134Z,12.50
2023-05-05T22:07:42.825Z,12.50
2023-05-05T22:10:12.151Z,12.42
2023-05-05T22:12:41.157Z,12.40
2023-05-05T22:15:11.747Z,12.40
2023-05-05T22:17:40.749Z,12.40
2023-05-05T22:20:11.048Z,12.30
2023-05-05T22:22:40.105Z,12.30
2023-05-05T22:25:10.414Z,12.30
2023-05-05T22:27:39.233Z,12.20
2023-05-05T22:30:10.469Z,12.20
2023-05-05T22:32:39.173Z,12.20
2023-05-05T22:35:09.364Z,12.16
2023-05-05T22:37:38.182Z,12.10
2023-05-05T22:40:09.534Z,12.10
2023-05-05T22:42:38.171Z,12.08
2023-05-05T22:45:09.057Z,12.00
2023-05-05T22:47:38.018Z,12.00
2023-05-05T22:50:08.529Z,12.00
2023-05-05T22:52:37.148Z,11.92
2023-05-05T22:55:06.702Z,11.90
2023-05-05T22:57:35.719Z,11.90
2023-05-05T23:00:05.734Z,11.82
2023-05-05T23:02:34.438Z,11.80
2023-05-05T23:05:03.170Z,11.80
2023-05-05T23:07:31.909Z,11.80
2023-05-05T23:10:00.572Z,11.80
2023-05-05T23:12:29.247Z,11.80
2023-05-05T23:14:58.150Z,11.80
2023-05-05T23:17:26.776Z,11.80
2023-05-05T23:19:55.406Z,11.80
2023-05-05T23:22:24.071Z,11.80
2023-05-05T23:24:53.120Z,11.80
2023-05-05T23:27:22.512Z,11.80
2023-05-05T23:29:51.037Z,11.80
2023-05-05T23:32:19.958Z,11.80
2023-05-05T23:34:48.651Z,11.76
2023-05-05T23:37:17.232Z,11.74
2023-05-05T23:39:45.930Z,11.74
2023-05-05T23:42:14.556Z,11.80
2023-05-05T23:44:43.122Z,11.78
2023-05-05T23:47:11.747Z,11.78
2023-05-05T23:49:40.387Z,11.74
2023-05-05T23:52:08.946Z,11.70
2023-05-05T23:54:37.414Z,11.70
2023-05-05T23:57:06.571Z,11.70
2023-05-05T23:59:35.075Z,11.70
